sensor_id;sensor_type;location;lat;lon;timestamp;P1;durP1;ratioP1;P2;durP2;ratioP2
21392;SDS011;10857;52.228;21.026;2023-09-19T00:00:49;16.63;;;14.07;;
21392;SDS011;10857;52.228;21.026;2023-09-19T00:03:16;20.80;;;14.45;;
21392;SDS011;10857;52.228;21.026;2023-09-19T00:05:43;18.08;;;14.88;;
21392;SDS011;10857;52.228;21.026;2023-09-19T00:08:12;18.80;;;14.23;;
21392;SDS011;10857;52.228;21.026;2023-09-19T00:10:40;18.25;;;14.02;;
21392;SDS011;10857;52.228;21.026;2023-09-19T00:13:08;19.40;;;14.75;;
21392;SDS011;10857;52.228;21.026;2023-09-19T00:15:42;21.23;;;14.40;;
21392;SDS011;10857;52.228;21.026;2023-09-19T00:18:17;20.40;;;13.75;;
21392;SDS011;10857;52.228;21.026;2023-09-19T00:20:48;18.38;;;14.23;;
21392;SDS011;10857;52.228;21.026;2023-09-19T00:23:16;18.10;;;13.75;;
21392;SDS011;10857;52.228;21.026;2023-09-19T00:25:46;17.60;;;14.10;;
21392;SDS011;10857;52.228;21.026;2023-09-19T00:28:13;19.65;;;14.35;;
21392;SDS011;10857;52.228;21.026;2023-09-19T00:30:42;18.73;;;13.95;;
21392;SDS011;10857;52.228;21.026;2023-09-19T00:33:10;19.15;;;14.05;;
21392;SDS011;10857;52.228;21.026;2023-09-19T00:35:46;22.45;;;14.27;;
21392;SDS011;10857;52.228;21.026;2023-09-19T00:38:18;18.75;;;13.85;;
21392;SDS011;10857;52.228;21.026;2023-09-19T00:40:54;22.73;;;15.02;;
21392;SDS011;10857;52.228;21.026;2023-09-19T00:43:26;17.88;;;14.65;;
21392;SDS011;10857;52.228;21.026;2023-09-19T00:45:55;18.83;;;14.30;;
21392;SDS011;10857;52.228;21.026;2023-09-19T00:48:24;17.75;;;14.52;;
21392;SDS011;10857;52.228;21.026;2023-09-19T00:50:54;17.60;;;14.30;;
21392;SDS011;10857;52.228;21.026;2023-09-19T00:53:25;17.60;;;13.63;;
21392;SDS011;10857;52.228;21.026;2023-09-19T00:55:54;18.52;;;14.32;;
21392;SDS011;10857;52.228;21.026;2023-09-19T00:58:22;19.35;;;14.93;;
21392;SDS011;10857;52.228;21.026;2023-09-19T01:00:49;17.17;;;13.82;;
21392;SDS011;10857;52.228;21.026;2023-09-19T01:03:17;19.02;;;14.50;;
21392;SDS011;10857;52.228;21.026;2023-09-19T01:05:45;18.55;;;14.00;;
21392;SDS011;10857;52.228;21.026;2023-09-19T01:08:12;17.33;;;13.88;;
21392;SDS011;10857;52.228;21.026;2023-09-19T01:10:46;20.70;;;14.35;;
21392;SDS011;10857;52.228;21.026;2023-09-19T01:21:29;19.20;;;14.65;;
21392;SDS011;10857;52.228;21.026;2023-09-19T01:29:47;18.23;;;14.20;;
21392;SDS011;10857;52.228;21.026;2023-09-19T01:32:17;18.70;;;14.70;;
21392;SDS011;10857;52.228;21.026;2023-09-19T01:34:54;17.63;;;14.30;;
21392;SDS011;10857;52.228;21.026;2023-09-19T01:37:25;20.85;;;14.38;;
21392;SDS011;10857;52.228;21.026;2023-09-19T01:40:00;19.20;;;14.30;;
21392;SDS011;10857;52.228;21.026;2023-09-19T01:42:43;19.88;;;14.80;;
21392;SDS011;10857;52.228;21.026;2023-09-19T01:51:10;22.80;;;15.98;;
21392;SDS011;10857;52.228;21.026;2023-09-19T01:53:45;20.83;;;16.52;;
21392;SDS011;10857;52.228;21.026;2023-09-19T01:56:37;19.60;;;15.13;;
21392;SDS011;10857;52.228;21.026;2023-09-19T01:59:16;20.33;;;13.93;;
21392;SDS011;10857;52.228;21.026;2023-09-19T02:01:48;21.90;;;15.48;;
21392;SDS011;10857;52.228;21.026;2023-09-19T02:04:20;19.08;;;14.82;;
21392;SDS011;10857;52.228;21.026;2023-09-19T02:06:47;18.73;;;14.60;;
21392;SDS011;10857;52.228;21.026;2023-09-19T02:09:14;19.75;;;14.93;;
21392;SDS011;10857;52.228;21.026;2023-09-19T02:11:43;19.48;;;14.75;;
21392;SDS011;10857;52.228;21.026;2023-09-19T02:14:10;21.15;;;14.95;;
21392;SDS011;10857;52.228;21.026;2023-09-19T02:16:37;20.23;;;14.43;;
21392;SDS011;10857;52.228;21.026;2023-09-19T02:19:05;20.27;;;14.77;;
21392;SDS011;10857;52.228;21.026;2023-09-19T02:21:32;16.52;;;14.13;;
21392;SDS011;10857;52.228;21.026;2023-09-19T02:23:59;18.13;;;14.60;;
21392;SDS011;10857;52.228;21.026;2023-09-19T02:26:28;20.73;;;14.45;;
21392;SDS011;10857;52.228;21.026;2023-09-19T02:28:54;19.13;;;14.90;;
21392;SDS011;10857;52.228;21.026;2023-09-19T02:31:21;18.60;;;14.88;;
21392;SDS011;10857;52.228;21.026;2023-09-19T02:33:49;16.42;;;13.85;;
21392;SDS011;10857;52.228;21.026;2023-09-19T02:36:15;19.63;;;15.07;;
21392;SDS011;10857;52.228;21.026;2023-09-19T02:38:44;16.65;;;14.32;;
21392;SDS011;10857;52.228;21.026;2023-09-19T02:41:12;18.90;;;14.13;;
21392;SDS011;10857;52.228;21.026;2023-09-19T02:43:39;20.05;;;14.40;;
21392;SDS011;10857;52.228;21.026;2023-09-19T02:46:07;18.92;;;14.85;;
21392;SDS011;10857;52.228;21.026;2023-09-19T02:48:34;18.08;;;14.50;;
21392;SDS011;10857;52.228;21.026;2023-09-19T02:51:02;19.02;;;14.63;;
21392;SDS011;10857;52.228;21.026;2023-09-19T02:53:30;19.95;;;14.95;;
21392;SDS011;10857;52.228;21.026;2023-09-19T02:55:58;23.15;;;14.65;;
21392;SDS011;10857;52.228;21.026;2023-09-19T02:58:27;19.80;;;14.60;;
21392;SDS011;10857;52.228;21.026;2023-09-19T03:00:57;19.63;;;14.60;;
21392;SDS011;10857;52.228;21.026;2023-09-19T03:03:24;22.02;;;14.55;;
21392;SDS011;10857;52.228;21.026;2023-09-19T03:05:52;17.45;;;14.73;;
21392;SDS011;10857;52.228;21.026;2023-09-19T03:08:21;17.88;;;14.65;;
21392;SDS011;10857;52.228;21.026;2023-09-19T03:10:48;18.83;;;14.95;;
21392;SDS011;10857;52.228;21.026;2023-09-19T03:13:17;19.25;;;14.57;;
21392;SDS011;10857;52.228;21.026;2023-09-19T03:15:45;20.30;;;15.23;;
21392;SDS011;10857;52.228;21.026;2023-09-19T03:18:21;18.55;;;15.10;;
21392;SDS011;10857;52.228;21.026;2023-09-19T03:20:53;19.13;;;15.23;;
21392;SDS011;10857;52.228;21.026;2023-09-19T03:23:22;20.55;;;14.25;;
21392;SDS011;10857;52.228;21.026;2023-09-19T03:25:49;17.67;;;14.88;;
21392;SDS011;10857;52.228;21.026;2023-09-19T03:28:19;19.40;;;15.07;;
21392;SDS011;10857;52.228;21.026;2023-09-19T03:30:58;20.20;;;14.80;;
21392;SDS011;10857;52.228;21.026;2023-09-19T03:33:32;20.25;;;14.88;;
21392;SDS011;10857;52.228;21.026;2023-09-19T03:36:01;18.05;;;14.80;;
21392;SDS011;10857;52.228;21.026;2023-09-19T03:38:33;19.52;;;14.63;;
21392;SDS011;10857;52.228;21.026;2023-09-19T03:41:01;19.60;;;13.80;;
21392;SDS011;10857;52.228;21.026;2023-09-19T03:43:31;20.23;;;15.00;;
21392;SDS011;10857;52.228;21.026;2023-09-19T03:46:02;19.02;;;14.65;;
21392;SDS011;10857;52.228;21.026;2023-09-19T03:48:32;19.38;;;14.95;;
21392;SDS011;10857;52.228;21.026;2023-09-19T03:51:01;19.35;;;14.48;;
21392;SDS011;10857;52.228;21.026;2023-09-19T03:53:28;20.85;;;14.75;;
21392;SDS011;10857;52.228;21.026;2023-09-19T03:55:56;22.45;;;14.55;;
21392;SDS011;10857;52.228;21.026;2023-09-19T03:58:24;20.40;;;15.32;;
21392;SDS011;10857;52.228;21.026;2023-09-19T04:00:57;22.27;;;15.20;;
21392;SDS011;10857;52.228;21.026;2023-09-19T04:03:26;22.65;;;16.73;;
21392;SDS011;10857;52.228;21.026;2023-09-19T04:06:01;21.27;;;15.65;;
21392;SDS011;10857;52.228;21.026;2023-09-19T04:08:31;18.70;;;14.23;;
21392;SDS011;10857;52.228;21.026;2023-09-19T04:11:01;17.33;;;14.52;;
21392;SDS011;10857;52.228;21.026;2023-09-19T04:13:28;21.02;;;14.45;;
21392;SDS011;10857;52.228;21.026;2023-09-19T04:15:56;20.38;;;14.57;;
21392;SDS011;10857;52.228;21.026;2023-09-19T04:18:23;24.23;;;15.25;;
21392;SDS011;10857;52.228;21.026;2023-09-19T04:20:52;19.55;;;14.82;;
21392;SDS011;10857;52.228;21.026;2023-09-19T04:23:20;18.08;;;14.43;;
21392;SDS011;10857;52.228;21.026;2023-09-19T04:25:47;19.20;;;15.23;;
21392;SDS011;10857;52.228;21.026;2023-09-19T04:28:14;20.23;;;15.20;;
21392;SDS011;10857;52.228;21.026;2023-09-19T04:30:42;20.50;;;15.55;;
21392;SDS011;10857;52.228;21.026;2023-09-19T04:33:09;20.08;;;15.27;;
21392;SDS011;10857;52.228;21.026;2023-09-19T04:35:37;23.27;;;15.98;;
21392;SDS011;10857;52.228;21.026;2023-09-19T04:38:05;17.25;;;14.50;;
21392;SDS011;10857;52.228;21.026;2023-09-19T04:40:33;18.27;;;14.48;;
21392;SDS011;10857;52.228;21.026;2023-09-19T04:43:00;20.55;;;14.55;;
21392;SDS011;10857;52.228;21.026;2023-09-19T04:45:28;18.65;;;15.00;;
21392;SDS011;10857;52.228;21.026;2023-09-19T04:47:56;21.77;;;14.88;;
21392;SDS011;10857;52.228;21.026;2023-09-19T04:50:23;19.73;;;15.65;;
21392;SDS011;10857;52.228;21.026;2023-09-19T04:52:56;20.13;;;14.80;;
21392;SDS011;10857;52.228;21.026;2023-09-19T04:55:25;22.65;;;15.65;;
21392;SDS011;10857;52.228;21.026;2023-09-19T04:57:55;17.85;;;14.50;;
21392;SDS011;10857;52.228;21.026;2023-09-19T05:00:22;21.02;;;14.65;;
21392;SDS011;10857;52.228;21.026;2023-09-19T05:02:51;19.80;;;15.05;;
21392;SDS011;10857;52.228;21.026;2023-09-19T05:05:19;21.05;;;14.98;;
21392;SDS011;10857;52.228;21.026;2023-09-19T05:07:46;18.73;;;14.48;;
21392;SDS011;10857;52.228;21.026;2023-09-19T05:10:14;21.23;;;14.48;;
21392;SDS011;10857;52.228;21.026;2023-09-19T05:12:45;22.35;;;14.43;;
21392;SDS011;10857;52.228;21.026;2023-09-19T05:15:14;19.20;;;14.95;;
21392;SDS011;10857;52.228;21.026;2023-09-19T05:17:50;23.33;;;15.00;;
21392;SDS011;10857;52.228;21.026;2023-09-19T05:20:23;18.60;;;14.07;;
21392;SDS011;10857;52.228;21.026;2023-09-19T05:23:01;19.75;;;14.10;;
21392;SDS011;10857;52.228;21.026;2023-09-19T05:25:30;23.10;;;13.75;;
21392;SDS011;10857;52.228;21.026;2023-09-19T05:27:59;22.00;;;14.05;;
21392;SDS011;10857;52.228;21.026;2023-09-19T05:30:27;17.85;;;13.95;;
21392;SDS011;10857;52.228;21.026;2023-09-19T05:32:56;20.98;;;14.98;;
21392;SDS011;10857;52.228;21.026;2023-09-19T05:35:24;20.33;;;14.55;;
21392;SDS011;10857;52.228;21.026;2023-09-19T05:37:53;20.40;;;13.90;;
21392;SDS011;10857;52.228;21.026;2023-09-19T05:40:21;19.63;;;13.48;;
21392;SDS011;10857;52.228;21.026;2023-09-19T05:42:50;21.92;;;14.55;;
21392;SDS011;10857;52.228;21.026;2023-09-19T05:45:20;21.05;;;13.55;;
21392;SDS011;10857;52.228;21.026;2023-09-19T05:47:50;19.65;;;14.32;;
21392;SDS011;10857;52.228;21.026;2023-09-19T05:50:18;21.05;;;13.65;;
21392;SDS011;10857;52.228;21.026;2023-09-19T05:52:52;17.88;;;14.35;;
21392;SDS011;10857;52.228;21.026;2023-09-19T05:55:22;24.60;;;14.50;;
21392;SDS011;10857;52.228;21.026;2023-09-19T05:57:52;19.45;;;14.15;;
21392;SDS011;10857;52.228;21.026;2023-09-19T06:00:19;18.85;;;13.70;;
21392;SDS011;10857;52.228;21.026;2023-09-19T06:02:53;21.15;;;14.00;;
21392;SDS011;10857;52.228;21.026;2023-09-19T06:05:24;20.30;;;13.50;;
21392;SDS011;10857;52.228;21.026;2023-09-19T06:08:00;21.58;;;13.80;;
21392;SDS011;10857;52.228;21.026;2023-09-19T06:10:27;22.02;;;13.57;;
21392;SDS011;10857;52.228;21.026;2023-09-19T06:12:55;18.43;;;14.70;;
21392;SDS011;10857;52.228;21.026;2023-09-19T06:15:25;18.48;;;12.93;;
21392;SDS011;10857;52.228;21.026;2023-09-19T06:17:53;20.27;;;13.60;;
21392;SDS011;10857;52.228;21.026;2023-09-19T06:20:22;16.02;;;13.10;;
21392;SDS011;10857;52.228;21.026;2023-09-19T06:22:52;21.60;;;14.50;;
21392;SDS011;10857;52.228;21.026;2023-09-19T06:25:20;18.88;;;13.07;;
21392;SDS011;10857;52.228;21.026;2023-09-19T06:27:50;20.15;;;13.30;;
21392;SDS011;10857;52.228;21.026;2023-09-19T06:30:22;20.60;;;13.30;;
21392;SDS011;10857;52.228;21.026;2023-09-19T06:32:56;18.13;;;13.93;;
21392;SDS011;10857;52.228;21.026;2023-09-19T06:35:25;17.17;;;13.82;;
21392;SDS011;10857;52.228;21.026;2023-09-19T06:37:53;18.60;;;13.35;;
21392;SDS011;10857;52.228;21.026;2023-09-19T06:40:20;21.00;;;14.32;;
21392;SDS011;10857;52.228;21.026;2023-09-19T06:42:49;19.23;;;14.30;;
21392;SDS011;10857;52.228;21.026;2023-09-19T06:45:17;18.27;;;14.02;;
21392;SDS011;10857;52.228;21.026;2023-09-19T06:47:45;22.52;;;14.48;;
21392;SDS011;10857;52.228;21.026;2023-09-19T06:50:20;20.27;;;13.27;;
21392;SDS011;10857;52.228;21.026;2023-09-19T06:52:52;18.42;;;13.52;;
21392;SDS011;10857;52.228;21.026;2023-09-19T06:55:22;21.52;;;14.52;;
21392;SDS011;10857;52.228;21.026;2023-09-19T06:57:55;19.30;;;14.13;;
21392;SDS011;10857;52.228;21.026;2023-09-19T07:00:23;20.67;;;14.40;;
21392;SDS011;10857;52.228;21.026;2023-09-19T07:02:54;21.40;;;14.52;;
21392;SDS011;10857;52.228;21.026;2023-09-19T07:05:38;21.40;;;13.68;;
21392;SDS011;10857;52.228;21.026;2023-09-19T07:08:07;18.27;;;14.20;;
21392;SDS011;10857;52.228;21.026;2023-09-19T07:10:36;23.83;;;14.48;;
21392;SDS011;10857;52.228;21.026;2023-09-19T07:13:03;21.73;;;14.77;;
21392;SDS011;10857;52.228;21.026;2023-09-19T07:15:33;19.88;;;14.63;;
21392;SDS011;10857;52.228;21.026;2023-09-19T07:18:03;20.10;;;14.10;;
21392;SDS011;10857;52.228;21.026;2023-09-19T07:20:32;20.02;;;14.52;;
21392;SDS011;10857;52.228;21.026;2023-09-19T07:23:02;21.50;;;14.90;;
21392;SDS011;10857;52.228;21.026;2023-09-19T07:25:30;20.42;;;14.60;;
21392;SDS011;10857;52.228;21.026;2023-09-19T07:27:57;21.92;;;15.63;;
21392;SDS011;10857;52.228;21.026;2023-09-19T07:30:27;21.65;;;15.18;;
21392;SDS011;10857;52.228;21.026;2023-09-19T07:32:55;22.38;;;15.63;;
21392;SDS011;10857;52.228;21.026;2023-09-19T07:35:22;20.05;;;14.82;;
21392;SDS011;10857;52.228;21.026;2023-09-19T07:37:50;21.08;;;15.65;;
21392;SDS011;10857;52.228;21.026;2023-09-19T07:40:18;23.95;;;16.20;;
21392;SDS011;10857;52.228;21.026;2023-09-19T07:42:47;30.00;;;17.25;;
21392;SDS011;10857;52.228;21.026;2023-09-19T07:45:15;22.75;;;16.80;;
21392;SDS011;10857;52.228;21.026;2023-09-19T07:47:47;27.08;;;17.45;;
21392;SDS011;10857;52.228;21.026;2023-09-19T07:50:16;26.02;;;17.67;;
21392;SDS011;10857;52.228;21.026;2023-09-19T07:52:47;22.58;;;16.90;;
21392;SDS011;10857;52.228;21.026;2023-09-19T07:55:17;24.80;;;17.38;;
21392;SDS011;10857;52.228;21.026;2023-09-19T07:57:46;21.33;;;16.88;;
21392;SDS011;10857;52.228;21.026;2023-09-19T08:00:17;25.85;;;17.33;;
21392;SDS011;10857;52.228;21.026;2023-09-19T08:02:45;26.40;;;17.73;;
21392;SDS011;10857;52.228;21.026;2023-09-19T08:05:16;29.00;;;18.25;;
21392;SDS011;10857;52.228;21.026;2023-09-19T08:07:45;27.88;;;18.83;;
21392;SDS011;10857;52.228;21.026;2023-09-19T08:10:15;23.90;;;18.00;;
21392;SDS011;10857;52.228;21.026;2023-09-19T08:12:44;30.23;;;18.77;;
21392;SDS011;10857;52.228;21.026;2023-09-19T08:15:15;25.52;;;19.25;;
21392;SDS011;10857;52.228;21.026;2023-09-19T08:17:43;25.35;;;18.95;;
21392;SDS011;10857;52.228;21.026;2023-09-19T08:20:11;28.35;;;19.15;;
21392;SDS011;10857;52.228;21.026;2023-09-19T08:25:16;26.30;;;19.05;;
21392;SDS011;10857;52.228;21.026;2023-09-19T08:27:47;26.23;;;19.40;;
21392;SDS011;10857;52.228;21.026;2023-09-19T08:30:16;26.10;;;19.60;;
21392;SDS011;10857;52.228;21.026;2023-09-19T08:32:56;27.40;;;20.13;;
21392;SDS011;10857;52.228;21.026;2023-09-19T08:35:25;27.13;;;19.92;;
21392;SDS011;10857;52.228;21.026;2023-09-19T08:37:53;26.98;;;20.30;;
21392;SDS011;10857;52.228;21.026;2023-09-19T08:40:22;28.95;;;20.55;;
21392;SDS011;10857;52.228;21.026;2023-09-19T08:42:54;24.17;;;18.80;;
21392;SDS011;10857;52.228;21.026;2023-09-19T08:45:23;23.98;;;18.27;;
21392;SDS011;10857;52.228;21.026;2023-09-19T08:48:06;21.60;;;16.95;;
21392;SDS011;10857;52.228;21.026;2023-09-19T08:50:47;26.13;;;16.92;;
21392;SDS011;10857;52.228;21.026;2023-09-19T08:56:17;25.27;;;16.60;;
21392;SDS011;10857;52.228;21.026;2023-09-19T08:58:47;22.50;;;16.20;;
21392;SDS011;10857;52.228;21.026;2023-09-19T09:01:15;21.55;;;15.60;;
21392;SDS011;10857;52.228;21.026;2023-09-19T09:03:43;24.55;;;15.93;;
21392;SDS011;10857;52.228;21.026;2023-09-19T09:06:15;23.10;;;15.95;;
21392;SDS011;10857;52.228;21.026;2023-09-19T09:08:44;20.27;;;15.90;;
21392;SDS011;10857;52.228;21.026;2023-09-19T09:11:12;21.08;;;15.15;;
21392;SDS011;10857;52.228;21.026;2023-09-19T09:13:41;24.15;;;15.73;;
21392;SDS011;10857;52.228;21.026;2023-09-19T09:16:09;19.65;;;14.70;;
21392;SDS011;10857;52.228;21.026;2023-09-19T09:18:36;20.88;;;14.30;;
21392;SDS011;10857;52.228;21.026;2023-09-19T09:21:04;20.45;;;13.00;;
21392;SDS011;10857;52.228;21.026;2023-09-19T09:23:31;20.70;;;13.20;;
21392;SDS011;10857;52.228;21.026;2023-09-19T09:25:58;18.00;;;11.82;;
21392;SDS011;10857;52.228;21.026;2023-09-19T09:28:30;19.95;;;12.60;;
21392;SDS011;10857;52.228;21.026;2023-09-19T09:31:02;18.23;;;11.93;;
21392;SDS011;10857;52.228;21.026;2023-09-19T09:33:37;16.15;;;11.65;;
21392;SDS011;10857;52.228;21.026;2023-09-19T09:36:06;15.88;;;11.02;;
21392;SDS011;10857;52.228;21.026;2023-09-19T09:38:45;14.38;;;10.35;;
21392;SDS011;10857;52.228;21.026;2023-09-19T09:41:15;19.48;;;9.93;;
21392;SDS011;10857;52.228;21.026;2023-09-19T09:43:56;13.63;;;9.20;;
21392;SDS011;10857;52.228;21.026;2023-09-19T09:46:45;15.23;;;9.52;;
21392;SDS011;10857;52.228;21.026;2023-09-19T09:49:22;20.02;;;12.52;;
21392;SDS011;10857;52.228;21.026;2023-09-19T09:52:06;22.27;;;13.80;;
21392;SDS011;10857;52.228;21.026;2023-09-19T09:54:37;22.92;;;15.25;;
21392;SDS011;10857;52.228;21.026;2023-09-19T09:57:08;20.15;;;15.00;;
21392;SDS011;10857;52.228;21.026;2023-09-19T09:59:51;26.20;;;15.93;;
21392;SDS011;10857;52.228;21.026;2023-09-19T10:02:30;24.13;;;15.40;;
21392;SDS011;10857;52.228;21.026;2023-09-19T10:05:14;21.60;;;15.32;;
21392;SDS011;10857;52.228;21.026;2023-09-19T10:07:55;21.77;;;15.82;;
21392;SDS011;10857;52.228;21.026;2023-09-19T10:10:36;21.13;;;14.23;;
21392;SDS011;10857;52.228;21.026;2023-09-19T10:13:23;19.83;;;15.05;;
21392;SDS011;10857;52.228;21.026;2023-09-19T10:15:54;20.85;;;15.02;;
21392;SDS011;10857;52.228;21.026;2023-09-19T10:18:25;14.90;;;12.27;;
21392;SDS011;10857;52.228;21.026;2023-09-19T10:20:54;20.67;;;14.18;;
21392;SDS011;10857;52.228;21.026;2023-09-19T10:23:23;19.35;;;13.68;;
21392;SDS011;10857;52.228;21.026;2023-09-19T10:25:52;19.05;;;14.85;;
21392;SDS011;10857;52.228;21.026;2023-09-19T10:28:20;20.58;;;13.30;;
21392;SDS011;10857;52.228;21.026;2023-09-19T10:30:51;22.30;;;13.60;;
21392;SDS011;10857;52.228;21.026;2023-09-19T10:33:20;19.45;;;13.10;;
21392;SDS011;10857;52.228;21.026;2023-09-19T10:35:50;16.00;;;12.55;;
21392;SDS011;10857;52.228;21.026;2023-09-19T10:38:23;18.58;;;11.88;;
21392;SDS011;10857;52.228;21.026;2023-09-19T10:40:53;16.13;;;11.45;;
21392;SDS011;10857;52.228;21.026;2023-09-19T10:43:22;15.77;;;10.90;;
21392;SDS011;10857;52.228;21.026;2023-09-19T10:45:52;13.90;;;9.48;;
21392;SDS011;10857;52.228;21.026;2023-09-19T10:48:23;19.92;;;10.90;;
21392;SDS011;10857;52.228;21.026;2023-09-19T10:51:02;14.07;;;10.63;;
21392;SDS011;10857;52.228;21.026;2023-09-19T10:56:10;13.40;;;9.27;;
21392;SDS011;10857;52.228;21.026;2023-09-19T10:58:45;13.95;;;9.57;;
21392;SDS011;10857;52.228;21.026;2023-09-19T11:01:14;16.08;;;10.63;;
21392;SDS011;10857;52.228;21.026;2023-09-19T11:03:44;14.27;;;10.50;;
21392;SDS011;10857;52.228;21.026;2023-09-19T11:06:13;17.63;;;11.20;;
21392;SDS011;10857;52.228;21.026;2023-09-19T11:08:58;17.70;;;12.27;;
21392;SDS011;10857;52.228;21.026;2023-09-19T11:11:46;19.83;;;13.25;;
21392;SDS011;10857;52.228;21.026;2023-09-19T11:33:30;15.35;;;8.60;;
21392;SDS011;10857;52.228;21.026;2023-09-19T11:36:10;11.65;;;8.30;;
21392;SDS011;10857;52.228;21.026;2023-09-19T11:43:47;11.80;;;8.10;;
21392;SDS011;10857;52.228;21.026;2023-09-19T11:46:15;10.23;;;7.78;;
21392;SDS011;10857;52.228;21.026;2023-09-19T11:48:48;9.65;;;7.97;;
21392;SDS011;10857;52.228;21.026;2023-09-19T11:53:55;9.93;;;7.72;;
21392;SDS011;10857;52.228;21.026;2023-09-19T11:56:28;11.57;;;7.72;;
21392;SDS011;10857;52.228;21.026;2023-09-19T11:58:58;9.77;;;7.95;;
21392;SDS011;10857;52.228;21.026;2023-09-19T12:01:30;22.65;;;15.00;;
21392;SDS011;10857;52.228;21.026;2023-09-19T12:04:01;11.95;;;8.85;;
21392;SDS011;10857;52.228;21.026;2023-09-19T12:06:31;13.82;;;8.90;;
21392;SDS011;10857;52.228;21.026;2023-09-19T12:08:59;11.18;;;9.15;;
21392;SDS011;10857;52.228;21.026;2023-09-19T12:11:29;13.88;;;10.73;;
21392;SDS011;10857;52.228;21.026;2023-09-19T12:14:01;13.52;;;10.00;;
21392;SDS011;10857;52.228;21.026;2023-09-19T12:16:28;13.05;;;10.40;;
21392;SDS011;10857;52.228;21.026;2023-09-19T12:19:17;12.93;;;9.88;;
21392;SDS011;10857;52.228;21.026;2023-09-19T12:21:54;19.67;;;11.80;;
21392;SDS011;10857;52.228;21.026;2023-09-19T12:24:31;14.13;;;11.32;;
21392;SDS011;10857;52.228;21.026;2023-09-19T12:27:09;17.10;;;11.43;;
21392;SDS011;10857;52.228;21.026;2023-09-19T12:29:44;13.63;;;11.13;;
21392;SDS011;10857;52.228;21.026;2023-09-19T12:32:12;15.73;;;11.82;;
21392;SDS011;10857;52.228;21.026;2023-09-19T12:34:49;16.50;;;11.20;;
21392;SDS011;10857;52.228;21.026;2023-09-19T12:37:23;18.70;;;11.60;;
21392;SDS011;10857;52.228;21.026;2023-09-19T12:40:06;15.07;;;10.93;;
21392;SDS011;10857;52.228;21.026;2023-09-19T12:42:45;14.07;;;10.75;;
21392;SDS011;10857;52.228;21.026;2023-09-19T12:45:14;19.67;;;11.00;;
21392;SDS011;10857;52.228;21.026;2023-09-19T12:51:01;13.02;;;9.75;;
21392;SDS011;10857;52.228;21.026;2023-09-19T12:53:36;13.50;;;10.77;;
21392;SDS011;10857;52.228;21.026;2023-09-19T12:56:10;15.93;;;11.40;;
21392;SDS011;10857;52.228;21.026;2023-09-19T12:58:53;18.05;;;11.23;;
21392;SDS011;10857;52.228;21.026;2023-09-19T13:01:22;16.67;;;11.35;;
21392;SDS011;10857;52.228;21.026;2023-09-19T13:06:49;17.70;;;10.80;;
21392;SDS011;10857;52.228;21.026;2023-09-19T13:09:19;16.05;;;11.50;;
21392;SDS011;10857;52.228;21.026;2023-09-19T13:11:48;17.35;;;11.20;;
21392;SDS011;10857;52.228;21.026;2023-09-19T13:14:21;19.40;;;11.07;;
21392;SDS011;10857;52.228;21.026;2023-09-19T13:19:49;14.60;;;11.02;;
21392;SDS011;10857;52.228;21.026;2023-09-19T13:25:10;53.05;;;21.42;;
21392;SDS011;10857;52.228;21.026;2023-09-19T13:27:43;23.65;;;12.85;;
21392;SDS011;10857;52.228;21.026;2023-09-19T13:30:14;36.50;;;15.95;;
21392;SDS011;10857;52.228;21.026;2023-09-19T13:32:41;27.05;;;13.65;;
21392;SDS011;10857;52.228;21.026;2023-09-19T13:35:10;35.42;;;14.45;;
21392;SDS011;10857;52.228;21.026;2023-09-19T13:37:39;22.10;;;12.52;;
21392;SDS011;10857;52.228;21.026;2023-09-19T13:40:11;33.55;;;13.32;;
21392;SDS011;10857;52.228;21.026;2023-09-19T13:42:41;25.25;;;12.30;;
21392;SDS011;10857;52.228;21.026;2023-09-19T13:45:09;19.83;;;12.32;;
21392;SDS011;10857;52.228;21.026;2023-09-19T13:47:42;22.67;;;12.25;;
21392;SDS011;10857;52.228;21.026;2023-09-19T13:50:10;20.77;;;12.90;;
21392;SDS011;10857;52.228;21.026;2023-09-19T13:52:39;19.38;;;13.02;;
21392;SDS011;10857;52.228;21.026;2023-09-19T13:55:06;22.05;;;12.98;;
21392;SDS011;10857;52.228;21.026;2023-09-19T13:57:33;19.88;;;12.30;;
21392;SDS011;10857;52.228;21.026;2023-09-19T14:00:02;20.67;;;12.07;;
21392;SDS011;10857;52.228;21.026;2023-09-19T14:02:37;22.80;;;10.63;;
21392;SDS011;10857;52.228;21.026;2023-09-19T14:05:06;22.75;;;13.35;;
21392;SDS011;10857;52.228;21.026;2023-09-19T14:07:36;19.48;;;12.93;;
21392;SDS011;10857;52.228;21.026;2023-09-19T14:10:05;22.52;;;12.98;;
21392;SDS011;10857;52.228;21.026;2023-09-19T14:12:36;17.52;;;12.63;;
21392;SDS011;10857;52.228;21.026;2023-09-19T14:15:07;18.40;;;12.68;;
21392;SDS011;10857;52.228;21.026;2023-09-19T14:17:35;17.17;;;12.57;;
21392;SDS011;10857;52.228;21.026;2023-09-19T14:20:04;22.95;;;13.40;;
21392;SDS011;10857;52.228;21.026;2023-09-19T14:22:33;18.35;;;13.43;;
21392;SDS011;10857;52.228;21.026;2023-09-19T14:25:01;19.33;;;14.20;;
21392;SDS011;10857;52.228;21.026;2023-09-19T14:27:29;18.52;;;12.80;;
21392;SDS011;10857;52.228;21.026;2023-09-19T14:29:56;21.67;;;13.77;;
21392;SDS011;10857;52.228;21.026;2023-09-19T14:32:24;22.63;;;14.13;;
21392;SDS011;10857;52.228;21.026;2023-09-19T14:34:51;16.75;;;12.90;;
21392;SDS011;10857;52.228;21.026;2023-09-19T14:37:19;21.40;;;13.38;;
21392;SDS011;10857;52.228;21.026;2023-09-19T14:39:51;21.38;;;13.93;;
21392;SDS011;10857;52.228;21.026;2023-09-19T14:42:21;20.33;;;12.88;;
21392;SDS011;10857;52.228;21.026;2023-09-19T14:44:50;19.90;;;12.43;;
21392;SDS011;10857;52.228;21.026;2023-09-19T14:47:17;16.73;;;11.27;;
21392;SDS011;10857;52.228;21.026;2023-09-19T14:49:45;14.55;;;11.80;;
21392;SDS011;10857;52.228;21.026;2023-09-19T14:52:12;17.13;;;12.90;;
21392;SDS011;10857;52.228;21.026;2023-09-19T14:54:43;20.00;;;14.38;;
21392;SDS011;10857;52.228;21.026;2023-09-19T14:57:10;17.88;;;10.18;;
21392;SDS011;10857;52.228;21.026;2023-09-19T14:59:40;15.60;;;9.57;;
21392;SDS011;10857;52.228;21.026;2023-09-19T15:02:11;16.92;;;10.27;;
21392;SDS011;10857;52.228;21.026;2023-09-19T15:04:38;16.25;;;9.32;;
21392;SDS011;10857;52.228;21.026;2023-09-19T15:07:08;13.90;;;8.95;;
21392;SDS011;10857;52.228;21.026;2023-09-19T15:09:36;11.35;;;8.73;;
21392;SDS011;10857;52.228;21.026;2023-09-19T15:12:04;13.15;;;8.93;;
21392;SDS011;10857;52.228;21.026;2023-09-19T15:14:31;16.00;;;9.15;;
21392;SDS011;10857;52.228;21.026;2023-09-19T15:17:01;14.00;;;8.90;;
21392;SDS011;10857;52.228;21.026;2023-09-19T15:19:31;14.15;;;8.98;;
21392;SDS011;10857;52.228;21.026;2023-09-19T15:21:58;14.05;;;9.20;;
21392;SDS011;10857;52.228;21.026;2023-09-19T15:24:25;29.20;;;11.27;;
21392;SDS011;10857;52.228;21.026;2023-09-19T15:26:53;11.20;;;8.40;;
21392;SDS011;10857;52.228;21.026;2023-09-19T15:29:21;14.73;;;8.80;;
21392;SDS011;10857;52.228;21.026;2023-09-19T15:31:49;12.50;;;8.77;;
21392;SDS011;10857;52.228;21.026;2023-09-19T15:34:17;50.30;;;17.38;;
21392;SDS011;10857;52.228;21.026;2023-09-19T15:36:44;32.13;;;11.68;;